Time;durP1;ratioP1;P1;durP2;ratioP2;P2;SDS_P1;SDS_P2;PMS_P1;PMS_P2;Temp;Humidity;BMP_temperature;BMP_pressure;BME280_temperature;BME280_humidity;BME280_pressure;Samples;Min_cycle;Max_cycle;Signal;HPM_P1;HPM_P2
2022/04/30 06:02:59;;;;;;;4.47;3.00;;;;;;;;;;10636417;27;20498;-84
2022/04/30 06:08:00;;;;;;;7.72;4.60;;;;;;;;;;10640342;28;20091;-84
2022/04/30 06:13:02;;;;;;;2.88;2.33;;;;;;;;;;10642209;28;20057;-84
2022/04/30 06:18:03;;;;;;;;;;;;;;;;;;10650569;27;20067;-82
2022/04/30 06:23:04;;;;;;;6.93;4.93;;;;;;;;;;10655576;27;19939;-85
2022/04/30 06:28:05;;;;;;;4.53;2.60;;;;;;;;;;10644429;28;20500;-85
2022/04/30 06:33:06;;;;;;;2.97;2.00;;;;;;;;;;10654668;28;20366;-85
2022/04/30 06:38:08;;;;;;;6.22;3.33;;;;;;;;;;10653608;28;20015;-85
2022/04/30 06:43:10;;;;;;;5.32;3.55;;;;;;;;;;10650092;27;20028;-85
2022/04/30 06:48:11;;;;;;;6.28;4.25;;;;;;;;;;10645560;28;20086;-85
2022/04/30 06:58:41;;;;;;;4.45;2.97;;;;;;;;;;10638278;28;19990;-83
2022/04/30 07:03:44;;;;;;;4.60;2.17;;;;;;;;;;10630776;28;20019;-83
2022/04/30 07:08:45;;;;;;;6.32;2.97;;;;;;;;;;10628985;28;20062;-79
2022/04/30 07:13:46;;;;;;;3.63;2.33;;;;;;;;;;10600490;28;20098;-81
2022/04/30 07:18:48;;;;;;;5.30;2.90;;;;;;;;;;10608742;28;20051;-83
2022/04/30 07:23:52;;;;;;;4.50;2.70;;;;;;;;;;10630763;28;20023;-82
2022/04/30 07:28:54;;;;;;;5.78;3.10;;;;;;;;;;10629039;28;20031;-82
2022/04/30 07:33:55;;;;;;;5.97;3.17;;;;;;;;;;10634980;27;20027;-81
2022/04/30 07:38:56;;;;;;;4.10;3.20;;;;;;;;;;10632483;27;20070;-82
2022/04/30 07:44:02;;;;;;;4.03;3.00;;;;;;;;;;10622513;28;20079;-82
2022/04/30 07:49:05;;;;;;;5.15;3.15;;;;;;;;;;10616654;28;20046;-83
2022/04/30 07:54:07;;;;;;;3.63;2.65;;;;;;;;;;10603796;28;20469;-83
2022/04/30 07:59:08;;;;;;;4.03;2.70;;;;;;;;;;10605419;28;20030;-82
2022/04/30 08:04:09;;;;;;;5.43;2.67;;;;;;;;;;10603606;28;20034;-84
2022/04/30 08:09:11;;;;;;;4.50;3.40;;;;;;;;;;10604982;28;20024;-83
2022/04/30 08:14:12;;;;;;;3.55;2.50;;;;;;;;;;10621349;28;20070;-83
2022/04/30 08:19:56;;;;;;;4.63;2.83;;;;;;;;;;10618202;28;20096;-86
2022/04/30 08:25:38;;;;;;;6.85;4.03;;;;;;;;;;10616608;28;20027;-86
2022/04/30 08:30:46;;;;;;;4.47;3.40;;;;;;;;;;10616541;28;20417;-85
2022/04/30 08:35:48;;;;;;;5.47;4.28;;;;;;;;;;10599180;28;20031;-86
2022/04/30 08:40:59;;;;;;;7.05;3.60;;;;;;;;;;10616094;28;20042;-86
2022/04/30 08:46:23;;;;;;;5.25;3.40;;;;;;;;;;10612215;28;20442;-86
2022/04/30 08:51:38;;;;;;;6.53;3.15;;;;;;;;;;10616633;28;20045;-85
2022/04/30 08:56:51;;;;;;;4.40;3.47;;;;;;;;;;10630806;22;20087;-81
2022/04/30 09:01:58;;;;;;;15.52;10.23;;;;;;;;;;10515295;28;20085;-79
2022/04/30 09:07:00;;;;;;;5.10;3.42;;;;;;;;;;10476052;28;20490;-79
2022/04/30 09:12:34;;;;;;;5.20;3.65;;;;;;;;;;10496576;28;20021;-81
2022/04/30 09:17:37;;;;;;;5.00;3.45;;;;;;;;;;10500459;28;20059;-79
2022/04/30 09:22:48;;;;;;;4.13;3.10;;;;;;;;;;10501136;28;20107;-81
2022/04/30 09:27:51;;;;;;;4.93;2.40;;;;;;;;;;10514957;28;20037;-80
2022/04/30 09:33:03;;;;;;;4.43;3.05;;;;;;;;;;10494142;28;20137;-80
2022/04/30 09:38:04;;;;;;;4.38;3.13;;;;;;;;;;10492583;28;20039;-79
2022/04/30 09:43:15;;;;;;;4.00;3.22;;;;;;;;;;10492168;28;20021;-80
2022/04/30 09:58:57;;;;;;;8.43;6.20;;;;;;;;;;10509315;28;20438;-81
2022/04/30 10:04:08;;;;;;;4.22;2.95;;;;;;;;;;10494246;28;20024;-80
2022/04/30 10:09:11;;;;;;;4.10;3.22;;;;;;;;;;10477084;28;20037;-81
2022/04/30 10:14:39;;;;;;;4.72;3.67;;;;;;;;;;10497096;28;20033;-81
2022/04/30 10:19:52;;;;;;;3.15;2.50;;;;;;;;;;10481150;28;20032;-81
2022/04/30 10:24:57;;;;;;;5.00;2.80;;;;;;;;;;10497698;28;20041;-80
2022/04/30 10:30:17;;;;;;;4.80;2.60;;;;;;;;;;10517709;28;20047;-81
2022/04/30 10:35:27;;;;;;;4.80;3.55;;;;;;;;;;10494135;28;20066;-81
2022/04/30 10:40:30;;;;;;;;;;;;;;;;;;10494501;28;20033;-82
2022/04/30 10:45:31;;;;;;;2.92;2.20;;;;;;;;;;10518356;28;19905;-79
2022/04/30 10:50:34;;;;;;;4.53;2.10;;;;;;;;;;10500243;28;20029;-82
2022/04/30 10:55:41;;;;;;;3.90;2.30;;;;;;;;;;10505481;28;20047;-82
2022/04/30 11:00:45;;;;;;;3.60;2.22;;;;;;;;;;10523105;28;20446;-81
2022/04/30 11:05:53;;;;;;;2.47;2.20;;;;;;;;;;10504080;28;20107;-82
2022/04/30 11:10:58;;;;;;;;;;;;;;;;;;10504033;28;20043;-82
2022/04/30 11:16:28;;;;;;;2.88;1.73;;;;;;;;;;10519685;28;20006;-82
2022/04/30 11:21:52;;;;;;;3.63;2.00;;;;;;;;;;10501763;28;20040;-82
2022/04/30 11:27:28;;;;;;;2.72;1.63;;;;;;;;;;10508501;28;20090;-82
2022/04/30 11:33:09;;;;;;;4.45;2.30;;;;;;;;;;10505898;28;20063;-81
2022/04/30 12:04:37;;;;;;;4.70;2.83;;;;;;;;;;10482308;28;20053;-84
2022/04/30 12:10:20;;;;;;;38.00;34.10;;;;;;;;;;10395113;28;20029;-84
2022/04/30 12:44:32;;;;;;;4.72;3.10;;;;;;;;;;10571999;27;20052;-83
2022/04/30 12:50:04;;;;;;;3.33;2.58;;;;;;;;;;10565981;28;20047;-85
2022/04/30 13:18:42;;;;;;;3.72;2.67;;;;;;;;;;10553838;28;20020;-83
2022/04/30 13:24:33;;;;;;;3.67;2.78;;;;;;;;;;10570315;28;20096;-83
2022/04/30 13:36:03;;;;;;;3.00;2.38;;;;;;;;;;10555167;28;20028;-84
2022/04/30 13:53:02;;;;;;;3.33;2.05;;;;;;;;;;10632185;22;20398;-83
2022/04/30 14:04:14;;;;;;;3.00;2.17;;;;;;;;;;10575160;28;20036;-83
2022/04/30 15:02:04;;;;;;;5.07;3.55;;;;;;;;;;10543381;22;20056;-88
2022/04/30 15:07:29;;;;;;;6.05;3.95;;;;;;;;;;10475791;28;20494;-86
2022/04/30 15:12:50;;;;;;;8.13;6.22;;;;;;;;;;10466119;28;20064;-87
2022/04/30 15:17:51;;;;;;;6.55;3.42;;;;;;;;;;10457663;28;20037;-86
2022/04/30 15:22:52;;;;;;;5.90;2.85;;;;;;;;;;10453528;28;20048;-87
2022/04/30 15:27:53;;;;;;;3.78;3.00;;;;;;;;;;10450693;28;20036;-85
2022/04/30 15:32:54;;;;;;;4.13;3.10;;;;;;;;;;10463268;28;20035;-88
2022/04/30 15:38:03;;;;;;;11.75;8.68;;;;;;;;;;10483782;28;20055;-88
2022/04/30 15:43:06;;;;;;;4.57;3.30;;;;;;;;;;10457563;28;20037;-88
2022/04/30 15:54:18;;;;;;;6.07;3.90;;;;;;;;;;10568414;28;20056;-85
2022/04/30 17:01:37;;;;;;;6.95;3.63;;;;;;;;;;10536327;28;20066;-87
2022/04/30 17:06:44;;;;;;;2.80;2.40;;;;;;;;;;10469339;28;20417;-87
2022/04/30 17:11:51;;;;;;;6.22;3.22;;;;;;;;;;10456059;28;20045;-86
2022/04/30 17:17:05;;;;;;;6.22;3.50;;;;;;;;;;10474727;28;20028;-86
2022/04/30 17:22:06;;;;;;;3.67;3.20;;;;;;;;;;10538867;28;20127;-89
2022/04/30 17:27:07;;;;;;;6.10;4.25;;;;;;;;;;10531900;28;20032;-88
2022/04/30 17:43:29;;;;;;;3.78;3.10;;;;;;;;;;10648792;22;20055;-87
2022/04/30 17:48:59;;;;;;;5.95;4.85;;;;;;;;;;10572666;28;20021;-86
2022/04/30 17:54:06;;;;;;;3.58;3.22;;;;;;;;;;10552497;28;20044;-87
2022/04/30 17:59:41;;;;;;;4.65;4.00;;;;;;;;;;10541865;28;20105;-87
2022/04/30 18:04:53;;;;;;;5.88;4.15;;;;;;;;;;10534651;28;20104;-87
2022/04/30 18:10:05;;;;;;;5.28;3.88;;;;;;;;;;10563431;28;20048;-86
2022/04/30 18:15:10;;;;;;;4.60;3.40;;;;;;;;;;10534322;28;20482;-88
2022/04/30 18:20:26;;;;;;;3.80;2.50;;;;;;;;;;10528677;28;20035;-88
2022/04/30 18:25:28;;;;;;;6.03;4.00;;;;;;;;;;10530100;28;20443;-88
2022/04/30 18:30:29;;;;;;;5.20;3.47;;;;;;;;;;10530282;28;20406;-87
2022/04/30 18:36:10;;;;;;;4.78;3.80;;;;;;;;;;10542132;28;20118;-86
2022/04/30 18:41:11;;;;;;;2.58;2.20;;;;;;;;;;10532390;28;20423;-87
2022/04/30 18:46:12;;;;;;;3.95;3.53;;;;;;;;;;10530521;28;20044;-86
2022/04/30 18:51:14;;;;;;;4.53;2.75;;;;;;;;;;10530916;28;20069;-85
2022/04/30 19:01:34;;;;;;;7.65;5.15;;;;;;;;;;10550752;28;20420;-87
2022/04/30 19:06:35;;;;;;;4.68;3.85;;;;;;;;;;10528250;28;20044;-86
2022/04/30 19:11:37;;;;;;;5.63;3.40;;;;;;;;;;10544369;28;20036;-86
2022/04/30 19:16:38;;;;;;;2.92;2.55;;;;;;;;;;10543056;28;20032;-86
2022/04/30 19:21:39;;;;;;;3.40;2.50;;;;;;;;;;10561363;28;20020;-86
2022/04/30 19:26:42;;;;;;;5.32;3.70;;;;;;;;;;10552376;28;20035;-85
